Time;durP1;ratioP1;P1;durP2;ratioP2;P2;SDS_P1;SDS_P2;PMS_P1;PMS_P2;Temp;Humidity;BMP_temperature;BMP_pressure;BME280_temperature;BME280_humidity;BME280_pressure;Samples;Min_cycle;Max_cycle;Signal;HPM_P1;HPM_P2
2021/07/10 00:02:08;;;;;;;12.57;9.50;;;;;;;17.15;97.40;96729.22;5045483;28;20205;-70
2021/07/10 00:04:34;;;;;;;14.95;9.73;;;;;;;17.22;97.53;96734.53;5044812;28;20220;-69
2021/07/10 00:07:04;;;;;;;16.45;10.70;;;;;;;17.10;99.30;96729.00;5044293;28;20211;-69
2021/07/10 00:09:31;;;;;;;26.30;10.70;;;;;;;16.90;100.00;96722.03;5043693;28;20260;-70
2021/07/10 00:11:59;;;;;;;14.82;9.93;;;;;;;17.24;99.68;96714.69;5045441;28;20209;-70
2021/07/10 00:14:26;;;;;;;14.35;9.93;;;;;;;17.08;100.00;96717.75;5045003;28;20205;-69
2021/07/10 00:16:52;;;;;;;19.10;9.68;;;;;;;17.19;99.84;96705.66;5044422;28;20231;-70
2021/07/10 00:19:19;;;;;;;14.57;9.57;;;;;;;17.25;98.10;96703.00;5044329;28;20613;-69
2021/07/10 00:21:45;;;;;;;17.00;9.93;;;;;;;17.29;98.02;96696.25;5044766;28;20201;-70
2021/07/10 00:24:12;;;;;;;23.15;11.63;;;;;;;17.22;99.23;96699.91;5044874;28;20204;-69
2021/07/10 00:26:38;;;;;;;17.38;10.40;;;;;;;17.12;99.92;96703.00;5044723;28;20204;-69
2021/07/10 00:29:06;;;;;;;12.98;8.80;;;;;;;17.29;97.97;96693.56;5044365;28;20221;-70
2021/07/10 00:31:32;;;;;;;12.50;8.02;;;;;;;17.24;97.16;96696.03;5044787;28;20556;-69
2021/07/10 00:33:59;;;;;;;17.73;9.00;;;;;;;17.24;97.15;96700.53;5046295;28;20200;-70
2021/07/10 00:36:25;;;;;;;14.55;7.90;;;;;;;17.02;97.58;96698.28;5046069;28;20212;-70
2021/07/10 00:38:53;;;;;;;22.02;9.20;;;;;;;17.10;98.72;96697.03;5043856;28;20276;-69
2021/07/10 00:41:19;;;;;;;22.83;8.88;;;;;;;17.33;96.76;96697.47;5046060;28;20201;-69
2021/07/10 00:43:48;;;;;;;33.13;10.20;;;;;;;17.22;98.76;96697.25;5046181;28;20205;-69
2021/07/10 00:46:18;;;;;;;57.40;11.90;;;;;;;17.14;100.00;96697.47;5045020;28;20196;-70
2021/07/10 00:48:44;;;;;;;21.35;11.38;;;;;;;17.00;100.00;96693.16;5043557;28;20256;-70
2021/07/10 00:51:11;;;;;;;34.80;12.70;;;;;;;17.05;100.00;96688.03;5045097;28;20212;-70
2021/07/10 00:53:37;;;;;;;22.95;10.45;;;;;;;17.10;100.00;96685.59;5044734;28;20205;-70
2021/07/10 00:56:06;;;;;;;16.90;9.57;;;;;;;17.20;99.43;96691.31;5044554;28;20204;-69
2021/07/10 00:58:33;;;;;;;13.75;8.55;;;;;;;17.23;98.56;96678.41;5043558;28;20236;-69
2021/07/10 01:00:59;;;;;;;13.50;8.15;;;;;;;17.32;96.70;96679.03;5044872;28;20233;-70
2021/07/10 01:03:31;;;;;;;14.55;7.68;;;;;;;17.40;96.18;96674.31;5044235;28;20216;-70
2021/07/10 01:05:57;;;;;;;21.30;7.03;;;;;;;17.30;95.64;96673.91;5048787;28;20209;-69
2021/07/10 01:08:24;;;;;;;20.42;8.25;;;;;;;17.26;96.06;96664.69;5048471;28;20228;-69
2021/07/10 01:10:51;;;;;;;12.70;8.23;;;;;;;17.30;96.77;96665.91;5049877;28;20204;-70
2021/07/10 01:13:18;;;;;;;17.30;8.23;;;;;;;17.28;96.89;96662.63;5048243;28;20201;-70
2021/07/10 01:15:45;;;;;;;28.42;8.55;;;;;;;17.05;99.06;96660.59;5049469;28;20665;-70
2021/07/10 01:18:11;;;;;;;39.35;8.02;;;;;;;16.92;99.89;96661.44;5048395;28;20225;-69
2021/07/10 01:20:45;;;;;;;27.58;7.78;;;;;;;17.23;99.09;96654.44;5048841;28;20212;-70
2021/07/10 01:23:12;;;;;;;18.15;7.78;;;;;;;16.87;100.00;96657.75;5047730;28;20193;-69
2021/07/10 01:25:38;;;;;;;20.15;8.55;;;;;;;16.87;100.00;96649.75;5047898;28;20205;-69
2021/07/10 01:28:07;;;;;;;30.15;8.73;;;;;;;16.84;100.00;96642.16;5046053;28;20201;-70
2021/07/10 01:30:35;;;;;;;18.60;7.75;;;;;;;17.03;99.41;96646.66;5047415;28;20232;-69
2021/07/10 01:33:03;;;;;;;22.35;7.18;;;;;;;16.86;99.90;96640.13;5048081;28;20212;-69
2021/07/10 01:35:30;;;;;;;17.30;8.05;;;;;;;17.04;99.17;96637.66;5048734;28;20217;-70
2021/07/10 01:37:58;;;;;;;18.05;7.25;;;;;;;17.10;98.53;96643.78;5047185;28;20705;-69
2021/07/10 01:40:25;;;;;;;22.23;8.75;;;;;;;17.00;99.86;96639.91;5047013;28;20209;-69
2021/07/10 01:42:52;;;;;;;19.20;8.20;;;;;;;16.99;99.40;96637.47;5046699;28;20226;-69
2021/07/10 01:45:20;;;;;;;39.03;9.55;;;;;;;16.99;99.85;96630.28;5046918;28;21243;-70
2021/07/10 01:47:47;;;;;;;38.75;10.43;;;;;;;17.02;100.00;96615.72;5047032;28;20274;-69
2021/07/10 01:50:14;;;;;;;36.80;9.15;;;;;;;16.93;100.00;96622.28;5048956;28;20208;-70
2021/07/10 01:52:42;;;;;;;29.77;10.02;;;;;;;17.13;100.00;96622.06;5048134;28;20205;-69
2021/07/10 01:55:12;;;;;;;22.20;8.95;;;;;;;17.28;99.92;96620.00;5047253;28;20193;-69
2021/07/10 01:57:40;;;;;;;47.80;10.00;;;;;;;17.08;100.00;96619.22;5045762;28;20220;-70
2021/07/10 02:00:08;;;;;;;54.40;10.10;;;;;;;17.16;100.00;96623.50;5045200;28;20236;-69
2021/07/10 02:02:35;;;;;;;33.55;9.32;;;;;;;17.17;100.00;96607.31;5046376;28;20218;-69
2021/07/10 02:05:01;;;;;;;48.55;10.23;;;;;;;16.95;100.00;96607.75;5046258;28;20201;-70
2021/07/10 02:07:28;;;;;;;61.50;11.85;;;;;;;16.84;100.00;96608.41;5044923;28;20216;-70
2021/07/10 02:09:55;;;;;;;35.42;10.77;;;;;;;16.93;100.00;96607.16;5045792;28;20225;-69
2021/07/10 02:12:22;;;;;;;28.30;11.00;;;;;;;17.10;100.00;96598.50;5047799;28;20212;-70
2021/07/10 02:14:49;;;;;;;27.45;11.55;;;;;;;17.16;100.00;96607.53;5046730;28;20200;-70
2021/07/10 02:17:15;;;;;;;44.40;14.00;;;;;;;17.18;100.00;96598.31;5045810;28;20220;-69
2021/07/10 02:19:42;;;;;;;37.38;12.50;;;;;;;17.22;100.00;96602.19;5048017;28;20232;-70
2021/07/10 02:22:10;;;;;;;41.40;13.30;;;;;;;17.30;99.62;96603.84;5047063;28;20201;-69
2021/07/10 02:24:36;;;;;;;30.40;13.18;;;;;;;17.35;99.52;96609.34;5046919;28;20205;-69
2021/07/10 02:27:03;;;;;;;39.35;10.80;;;;;;;17.36;99.59;96600.31;5044557;28;20201;-69
2021/07/10 02:29:31;;;;;;;29.17;11.73;;;;;;;17.31;100.00;96602.78;5046817;28;20937;-69
2021/07/10 02:31:58;;;;;;;35.13;10.23;;;;;;;17.29;100.00;96596.88;5046371;28;20609;-69
2021/07/10 02:34:24;;;;;;;32.80;8.85;;;;;;;17.13;100.00;96597.28;5046263;28;20551;-69
2021/07/10 02:36:51;;;;;;;15.77;8.23;;;;;;;17.24;100.00;96597.47;5045531;28;20209;-69
2021/07/10 02:39:17;;;;;;;16.83;8.50;;;;;;;17.13;100.00;96590.13;5044482;28;20682;-70
2021/07/10 02:41:44;;;;;;;18.73;8.73;;;;;;;17.10;100.00;96590.53;5045687;28;20205;-69
2021/07/10 02:44:10;;;;;;;14.32;8.30;;;;;;;17.20;100.00;96584.78;5045365;28;20197;-69
2021/07/10 02:46:38;;;;;;;10.88;7.78;;;;;;;17.27;100.00;96585.59;5044690;28;20205;-69
2021/07/10 02:49:04;;;;;;;33.80;8.27;;;;;;;16.84;100.00;96583.59;5045078;28;20221;-69
2021/07/10 02:51:31;;;;;;;16.52;8.00;;;;;;;16.94;100.00;96581.34;5044550;28;20209;-70
2021/07/10 02:53:57;;;;;;;13.45;7.25;;;;;;;17.14;99.30;96581.13;5044853;28;20201;-70
2021/07/10 02:56:25;;;;;;;17.90;7.55;;;;;;;17.12;99.34;96582.34;5044826;28;20705;-70
2021/07/10 02:58:52;;;;;;;38.22;8.63;;;;;;;16.73;99.85;96582.41;5043307;28;20233;-69
2021/07/10 03:01:19;;;;;;;22.38;9.10;;;;;;;16.55;100.00;96586.72;5044077;28;20205;-70
2021/07/10 03:03:47;;;;;;;30.67;8.85;;;;;;;16.21;100.00;96589.53;5044491;28;20209;-70
2021/07/10 03:06:14;;;;;;;39.95;10.00;;;;;;;16.14;100.00;96578.06;5043998;28;20208;-70
2021/07/10 03:08:42;;;;;;;40.08;10.75;;;;;;;16.27;100.00;96586.09;5042886;28;20240;-70
2021/07/10 03:11:09;;;;;;;34.05;8.75;;;;;;;16.40;100.00;96580.78;5044865;28;20201;-70
2021/07/10 03:13:36;;;;;;;18.63;8.25;;;;;;;16.54;100.00;96577.09;5044195;28;20208;-70
2021/07/10 03:16:03;;;;;;;15.48;7.53;;;;;;;16.52;100.00;96581.78;5043821;28;20204;-70
2021/07/10 03:18:29;;;;;;;18.48;6.97;;;;;;;16.41;98.73;96582.41;5043129;28;20769;-69
2021/07/10 03:20:58;;;;;;;17.40;7.45;;;;;;;16.37;99.36;96578.53;5045347;28;20201;-70
2021/07/10 03:23:24;;;;;;;21.98;6.95;;;;;;;16.46;99.05;96585.28;5043759;28;20651;-70
2021/07/10 03:25:50;;;;;;;9.25;6.47;;;;;;;16.48;97.36;96577.91;5043824;28;20205;-70
2021/07/10 03:28:17;;;;;;;11.40;5.68;;;;;;;16.40;97.52;96583.44;5043596;28;20217;-70
2021/07/10 03:30:48;;;;;;;7.30;6.13;;;;;;;16.16;98.50;96578.66;5044085;28;20208;-69
2021/07/10 03:33:14;;;;;;;13.70;6.03;;;;;;;16.15;97.98;96586.84;5042985;28;20205;-70
2021/07/10 03:35:41;;;;;;;12.32;6.30;;;;;;;16.06;98.02;96580.94;5043444;28;20217;-70
2021/07/10 03:38:09;;;;;;;12.82;5.82;;;;;;;16.07;97.62;96579.88;5043125;28;20228;-70
2021/07/10 03:40:35;;;;;;;13.82;6.22;;;;;;;15.87;98.58;96579.03;5043720;28;20205;-69
2021/07/10 03:43:04;;;;;;;20.45;6.70;;;;;;;15.72;99.85;96577.56;5044180;28;20220;-70
2021/07/10 03:45:30;;;;;;;27.67;7.85;;;;;;;15.90;100.00;96568.00;5043825;28;20205;-69
2021/07/10 03:47:57;;;;;;;28.30;6.97;;;;;;;15.83;100.00;96571.66;5042785;28;20212;-70
2021/07/10 03:50:24;;;;;;;31.13;6.28;;;;;;;15.89;100.00;96568.22;5044112;28;20206;-70
2021/07/10 03:52:51;;;;;;;36.60;6.53;;;;;;;15.64;100.00;96566.31;5043013;28;20213;-70
2021/07/10 03:55:19;;;;;;;24.20;5.53;;;;;;;15.63;100.00;96569.97;5043242;28;20197;-69
2021/07/10 03:57:45;;;;;;;21.25;5.68;;;;;;;15.53;100.00;96564.22;5042296;28;20217;-70
2021/07/10 04:00:15;;;;;;;21.58;6.22;;;;;;;15.51;100.00;96568.91;5043263;28;20197;-70
2021/07/10 04:02:42;;;;;;;23.00;6.72;;;;;;;15.58;100.00;96561.78;5043512;28;20255;-69
2021/07/10 04:05:10;;;;;;;14.18;6.20;;;;;;;15.64;100.00;96556.47;5043263;28;20209;-70
2021/07/10 04:07:37;;;;;;;18.10;6.65;;;;;;;15.63;100.00;96559.34;5043694;28;20833;-70
2021/07/10 04:10:06;;;;;;;19.50;6.72;;;;;;;15.69;100.00;96561.22;5044070;28;20584;-69
2021/07/10 04:12:33;;;;;;;37.85;8.13;;;;;;;15.71;100.00;96559.19;5043537;28;20205;-69
2021/07/10 04:15:00;;;;;;;13.88;6.53;;;;;;;15.66;100.00;96562.44;5043428;28;20661;-70
2021/07/10 04:17:28;;;;;;;11.02;6.28;;;;;;;15.67;100.00;96566.72;5043282;28;20209;-70
2021/07/10 04:19:55;;;;;;;13.50;6.57;;;;;;;15.57;100.00;96554.84;5044676;28;20233;-70
2021/07/10 04:22:22;;;;;;;24.95;6.88;;;;;;;15.62;100.00;96553.22;5044527;28;20201;-70
2021/07/10 04:24:49;;;;;;;17.65;7.25;;;;;;;15.97;100.00;96547.59;5044784;28;20213;-69
2021/07/10 04:27:15;;;;;;;18.63;7.03;;;;;;;15.92;100.00;96549.19;5045319;28;20200;-70
2021/07/10 04:29:45;;;;;;;55.85;8.38;;;;;;;16.28;100.00;96562.97;5043757;28;20229;-69
2021/07/10 04:32:11;;;;;;;11.05;6.28;;;;;;;16.14;99.52;96569.25;5042325;28;20237;-69
2021/07/10 04:34:38;;;;;;;22.92;6.85;;;;;;;16.03;100.00;96561.91;5044404;28;20642;-70
2021/07/10 04:37:05;;;;;;;16.10;6.47;;;;;;;16.07;100.00;96563.13;5042556;28;20649;-70
2021/07/10 04:39:31;;;;;;;14.77;6.25;;;;;;;15.98;99.91;96567.81;5043254;28;20236;-69
2021/07/10 04:41:58;;;;;;;12.65;6.55;;;;;;;16.17;99.50;96572.34;5046529;28;20681;-69
2021/07/10 04:44:24;;;;;;;15.77;6.93;;;;;;;16.34;100.00;96564.81;5048130;28;20201;-70
2021/07/10 04:46:52;;;;;;;23.75;6.30;;;;;;;16.43;99.82;96564.41;5045389;28;20205;-69
2021/07/10 04:49:19;;;;;;;20.77;6.63;;;;;;;16.46;99.41;96566.66;5045001;28;20221;-69
2021/07/10 04:51:45;;;;;;;19.70;6.65;;;;;;;16.45;99.20;96572.19;5043126;28;20215;-70
2021/07/10 04:54:12;;;;;;;16.60;6.70;;;;;;;16.45;100.00;96569.53;5045960;28;20209;-69
2021/07/10 04:56:38;;;;;;;14.18;6.55;;;;;;;16.55;100.00;96573.41;5045231;28;20201;-69
2021/07/10 04:59:05;;;;;;;29.95;5.93;;;;;;;16.47;99.10;96567.47;5044355;28;20605;-69
2021/07/10 05:01:31;;;;;;;16.45;5.65;;;;;;;16.55;98.71;96565.44;5045695;28;20212;-69
2021/07/10 05:03:59;;;;;;;19.55;6.38;;;;;;;16.82;98.81;96575.84;5045632;28;20708;-69
2021/07/10 05:06:25;;;;;;;14.40;6.90;;;;;;;16.79;99.49;96570.09;5045452;28;20208;-69
2021/07/10 05:08:52;;;;;;;13.45;6.65;;;;;;;16.85;99.15;96574.59;5045082;28;20217;-69
2021/07/10 05:11:19;;;;;;;11.93;6.80;;;;;;;16.96;98.92;96568.66;5045763;28;20208;-69
2021/07/10 05:13:45;;;;;;;24.27;6.50;;;;;;;16.89;96.92;96573.16;5045815;28;20210;-69
2021/07/10 05:16:11;;;;;;;21.00;6.68;;;;;;;16.72;98.35;96571.97;5045718;28;20615;-69
2021/07/10 05:18:38;;;;;;;35.60;6.85;;;;;;;16.84;98.03;96572.97;5044335;28;20225;-69
2021/07/10 05:21:06;;;;;;;31.08;6.95;;;;;;;17.03;98.89;96572.09;5044608;28;20218;-69
2021/07/10 05:23:33;;;;;;;11.77;6.60;;;;;;;17.04;98.52;96569.22;5045795;28;20212;-69
2021/07/10 05:25:59;;;;;;;19.55;7.00;;;;;;;17.15;99.13;96569.41;5045178;28;20213;-69
2021/07/10 05:28:25;;;;;;;34.63;6.53;;;;;;;16.86;100.00;96576.25;5045115;28;20217;-69
2021/07/10 05:30:52;;;;;;;42.47;6.68;;;;;;;17.15;98.67;96569.41;5044971;28;20935;-69
2021/07/10 05:33:20;;;;;;;11.20;7.00;;;;;;;17.41;98.71;96564.06;5044427;28;20201;-69
2021/07/10 05:35:46;;;;;;;13.00;7.00;;;;;;;17.53;98.35;96567.69;5044446;28;20298;-69
2021/07/10 05:38:16;;;;;;;16.25;7.00;;;;;;;17.63;98.52;96565.38;5044737;28;20228;-70
2021/07/10 05:40:43;;;;;;;22.98;7.60;;;;;;;17.49;98.65;96568.28;5045206;28;20204;-69
2021/07/10 05:43:10;;;;;;;41.25;7.65;;;;;;;17.19;99.28;96562.63;5045725;28;20193;-69
2021/07/10 05:45:36;;;;;;;38.63;7.72;;;;;;;17.38;99.07;96551.13;5044323;28;20201;-69
2021/07/10 05:48:03;;;;;;;33.35;7.45;;;;;;;17.61;99.26;96555.97;5043783;28;20216;-69
2021/07/10 05:50:30;;;;;;;14.07;8.98;;;;;;;17.66;99.81;96556.94;5044263;28;20202;-69
2021/07/10 05:52:56;;;;;;;25.38;7.68;;;;;;;17.77;99.04;96553.63;5043521;28;20205;-69
2021/07/10 05:55:24;;;;;;;33.88;7.90;;;;;;;17.89;98.67;96557.25;5045047;28;20205;-69
2021/07/10 05:57:50;;;;;;;41.00;8.18;;;;;;;17.80;98.57;96563.84;5042919;28;20213;-69
2021/07/10 06:00:18;;;;;;;23.85;8.30;;;;;;;18.00;98.56;96561.91;5044224;28;20220;-69
2021/07/10 06:02:44;;;;;;;16.40;8.70;;;;;;;17.97;98.72;96559.66;5044693;28;20208;-69
2021/07/10 06:05:11;;;;;;;52.53;9.30;;;;;;;18.11;99.24;96567.34;5044940;28;20209;-69
2021/07/10 06:07:38;;;;;;;13.48;9.15;;;;;;;18.07;98.75;96562.66;5043743;28;20205;-70
2021/07/10 06:10:07;;;;;;;12.35;8.85;;;;;;;18.18;98.52;96564.69;5044814;28;20217;-69
2021/07/10 06:12:35;;;;;;;15.82;9.25;;;;;;;18.37;98.85;96564.53;5044885;28;20208;-69
2021/07/10 06:15:02;;;;;;;13.38;9.07;;;;;;;18.20;98.27;96567.94;5043776;28;20209;-69
2021/07/10 06:17:28;;;;;;;14.02;8.75;;;;;;;18.18;97.50;96570.03;5043173;28;20568;-70
2021/07/10 06:19:55;;;;;;;12.23;9.65;;;;;;;18.36;96.46;96563.69;5044480;28;20228;-69
2021/07/10 06:22:21;;;;;;;14.13;9.70;;;;;;;18.33;96.21;96554.50;5044196;28;20205;-69
2021/07/10 06:24:48;;;;;;;12.88;9.57;;;;;;;18.36;95.70;96553.03;5043934;28;20247;-69
2021/07/10 06:27:14;;;;;;;16.88;10.32;;;;;;;18.55;96.06;96552.06;5043022;28;20209;-69
2021/07/10 06:29:43;;;;;;;15.25;10.48;;;;;;;18.67;96.21;96553.00;5043316;28;20217;-69
2021/07/10 06:32:11;;;;;;;12.55;10.00;;;;;;;18.76;95.73;96549.00;5043541;28;20296;-69
2021/07/10 06:34:38;;;;;;;18.02;10.75;;;;;;;18.83;95.73;96554.28;5042772;28;20582;-69
2021/07/10 06:37:05;;;;;;;12.95;10.57;;;;;;;18.80;96.13;96555.53;5041549;28;20201;-69
2021/07/10 06:39:31;;;;;;;16.85;11.15;;;;;;;18.91;94.23;96557.47;5042362;28;20233;-69
2021/07/10 06:41:58;;;;;;;15.20;11.07;;;;;;;18.72;95.76;96569.16;5041749;28;20205;-69
2021/07/10 06:44:24;;;;;;;19.15;12.70;;;;;;;18.98;96.40;96575.06;5043842;28;20212;-70
2021/07/10 06:46:52;;;;;;;16.20;11.15;;;;;;;19.27;93.08;96577.06;5042920;28;20232;-69
2021/07/10 06:49:20;;;;;;;14.05;11.10;;;;;;;19.07;94.55;96572.97;5042437;28;20264;-69
2021/07/10 06:51:46;;;;;;;13.77;11.20;;;;;;;19.25;94.38;96571.13;5041920;28;20220;-69
2021/07/10 06:54:13;;;;;;;15.52;11.82;;;;;;;19.32;94.47;96565.69;5043046;28;20209;-69
2021/07/10 06:56:39;;;;;;;16.88;11.90;;;;;;;19.18;94.17;96575.75;5043440;28;20673;-69
2021/07/10 06:59:06;;;;;;;18.92;11.68;;;;;;;19.78;90.78;96572.94;5041562;28;20728;-69
2021/07/10 07:01:32;;;;;;;16.15;11.55;;;;;;;19.82;92.15;96581.34;5040776;28;20209;-69
2021/07/10 07:04:01;;;;;;;19.92;12.07;;;;;;;19.51;96.10;96580.69;5042655;28;20205;-69
2021/07/10 07:06:27;;;;;;;18.48;11.93;;;;;;;19.92;91.87;96571.78;5043964;28;20201;-69
2021/07/10 07:08:55;;;;;;;18.17;13.40;;;;;;;19.91;93.21;96561.31;5041802;28;20228;-69
2021/07/10 07:11:21;;;;;;;18.88;13.85;;;;;;;19.70;92.64;96559.91;5042801;28;20210;-70
2021/07/10 07:13:48;;;;;;;18.52;11.85;;;;;;;20.03;91.01;96557.59;5042802;28;20579;-70
2021/07/10 07:16:14;;;;;;;18.80;12.77;;;;;;;19.92;95.47;96547.69;5043645;28;20201;-69
2021/07/10 07:18:41;;;;;;;18.05;13.27;;;;;;;20.01;90.27;96550.84;5042800;28;20225;-69
2021/07/10 07:21:08;;;;;;;26.42;16.15;;;;;;;20.33;92.44;96547.72;5043448;28;20580;-69
2021/07/10 07:23:35;;;;;;;18.90;13.85;;;;;;;20.24;91.03;96549.88;5043522;28;20216;-69
2021/07/10 07:26:01;;;;;;;18.83;14.70;;;;;;;20.27;91.96;96543.25;5044686;28;20205;-69
2021/07/10 07:28:28;;;;;;;16.90;13.35;;;;;;;20.25;92.20;96548.00;5043067;28;20220;-70
2021/07/10 07:30:54;;;;;;;19.67;12.73;;;;;;;19.89;92.45;96548.09;5044742;28;20208;-69
2021/07/10 07:33:21;;;;;;;20.58;14.40;;;;;;;20.30;92.95;96551.66;5043670;28;20205;-69
2021/07/10 07:35:47;;;;;;;18.17;14.23;;;;;;;20.30;92.16;96551.66;5043675;28;20248;-68
2021/07/10 07:38:15;;;;;;;19.20;13.82;;;;;;;20.75;89.53;96560.00;5043871;28;20229;-69
2021/07/10 07:40:42;;;;;;;17.05;11.98;;;;;;;20.65;89.58;96554.41;5043475;28;20232;-70
2021/07/10 07:43:08;;;;;;;16.92;12.50;;;;;;;20.85;90.57;96551.16;5044686;28;20201;-69
2021/07/10 07:45:34;;;;;;;13.88;11.48;;;;;;;20.65;91.68;96549.84;5044488;28;20205;-69
2021/07/10 07:48:01;;;;;;;17.83;11.77;;;;;;;20.77;89.44;96547.22;5043940;28;20209;-69
2021/07/10 07:50:27;;;;;;;17.48;13.07;;;;;;;21.03;90.41;96545.69;5045527;28;20212;-69
2021/07/10 07:52:54;;;;;;;15.52;11.85;;;;;;;20.97;90.17;96545.81;5044965;28;20224;-69
2021/07/10 07:55:22;;;;;;;13.63;10.32;;;;;;;21.59;88.00;96537.84;5044731;28;20217;-69
2021/07/10 07:57:48;;;;;;;15.73;11.45;;;;;;;21.73;90.57;96544.56;5041001;28;20217;-69
2021/07/10 08:00:19;;;;;;;13.80;10.20;;;;;;;21.70;88.91;96531.59;5044362;28;20225;-69
2021/07/10 08:02:47;;;;;;;11.90;9.38;;;;;;;21.08;90.17;96527.06;5044960;28;20495;-69
2021/07/10 08:05:14;;;;;;;13.15;10.38;;;;;;;21.22;89.15;96531.13;5044100;28;20216;-70
2021/07/10 08:07:41;;;;;;;12.95;10.07;;;;;;;21.41;87.02;96529.91;5045465;28;20205;-69
2021/07/10 08:10:11;;;;;;;14.18;9.90;;;;;;;21.63;88.23;96523.69;5045326;28;20645;-70
2021/07/10 08:12:39;;;;;;;14.65;10.73;;;;;;;21.51;89.37;96527.44;5043719;28;20265;-70
2021/07/10 08:15:07;;;;;;;14.25;9.38;;;;;;;21.97;86.77;96524.59;5043754;28;20263;-69
2021/07/10 08:17:34;;;;;;;10.90;8.93;;;;;;;21.86;83.01;96530.84;5043916;28;20205;-70
2021/07/10 08:20:01;;;;;;;12.32;9.07;;;;;;;21.98;82.79;96526.25;5043288;28;20225;-70
2021/07/10 08:22:28;;;;;;;13.43;9.90;;;;;;;21.59;85.39;96527.09;5043738;28;20201;-70
2021/07/10 08:24:54;;;;;;;13.20;9.90;;;;;;;21.95;86.88;96524.03;5044459;28;20205;-69
2021/07/10 08:27:20;;;;;;;12.77;9.25;;;;;;;21.98;87.79;96520.88;5043680;28;20209;-70
2021/07/10 08:29:48;;;;;;;13.55;9.07;;;;;;;22.08;87.60;96506.59;5044292;28;20483;-69
2021/07/10 08:32:15;;;;;;;14.70;9.43;;;;;;;22.29;83.88;96500.53;5044881;28;20204;-69
2021/07/10 08:34:41;;;;;;;15.02;8.65;;;;;;;22.46;84.87;96498.66;5044357;28;20231;-69
2021/07/10 08:37:08;;;;;;;13.25;10.07;;;;;;;22.48;86.74;96506.47;5043254;28;20216;-69
2021/07/10 08:39:34;;;;;;;12.32;8.73;;;;;;;22.65;83.79;96510.81;5043663;28;20608;-69
2021/07/10 08:42:01;;;;;;;12.90;9.18;;;;;;;22.57;84.54;96505.00;5043762;28;20274;-69
2021/07/10 08:44:28;;;;;;;15.85;9.32;;;;;;;22.53;86.13;96493.13;5044299;28;20216;-69
2021/07/10 08:46:56;;;;;;;13.05;9.45;;;;;;;22.78;87.49;96502.41;5043981;28;20204;-69
2021/07/10 08:49:22;;;;;;;12.05;9.68;;;;;;;23.06;87.21;96496.94;5042073;28;20225;-70
2021/07/10 08:51:49;;;;;;;11.43;9.10;;;;;;;22.84;84.19;96496.06;5043607;28;20212;-69
2021/07/10 08:54:16;;;;;;;11.07;8.75;;;;;;;22.78;82.79;96500.56;5042915;28;20485;-69
2021/07/10 08:56:43;;;;;;;12.85;9.10;;;;;;;22.61;84.02;96492.75;5041657;28;20205;-70
2021/07/10 08:59:10;;;;;;;12.63;9.60;;;;;;;22.60;83.45;96491.91;5041646;28;20229;-70
2021/07/10 09:01:36;;;;;;;14.65;9.32;;;;;;;23.01;84.49;96486.09;5042891;28;20204;-69
2021/07/10 09:04:05;;;;;;;12.70;8.70;;;;;;;22.95;83.62;96487.06;5042497;28;20201;-70
2021/07/10 09:06:32;;;;;;;12.45;9.10;;;;;;;22.97;83.57;96482.25;5042938;28;20228;-69
2021/07/10 09:09:00;;;;;;;13.63;9.32;;;;;;;23.36;86.50;96485.53;5043532;28;20228;-69
2021/07/10 09:11:27;;;;;;;11.32;8.82;;;;;;;23.31;81.57;96480.06;5042977;28;20221;-70
2021/07/10 09:13:55;;;;;;;14.88;9.30;;;;;;;23.17;85.50;96480.69;5043763;28;20244;-70
2021/07/10 09:16:25;;;;;;;15.20;10.07;;;;;;;22.97;84.71;96479.56;5044061;28;20641;-69
2021/07/10 09:18:54;;;;;;;13.57;8.40;;;;;;;23.61;82.63;96477.75;5042177;28;20229;-70
2021/07/10 09:21:40;;;;;;;11.07;7.72;;;;;;;23.92;81.78;96468.97;5042402;28;20661;-70
2021/07/10 09:24:08;;;;;;;11.30;8.00;;;;;;;23.91;81.05;96471.94;5041080;28;20209;-68
2021/07/10 09:26:39;;;;;;;12.52;9.00;;;;;;;23.73;79.97;96466.91;5043034;28;20262;-69
2021/07/10 09:29:09;;;;;;;10.40;8.02;;;;;;;23.34;78.58;96460.75;5044857;28;20239;-70
2021/07/10 09:31:38;;;;;;;13.27;8.48;;;;;;;23.51;81.37;96456.13;5046265;28;20740;-69
2021/07/10 09:34:12;;;;;;;11.90;9.07;;;;;;;23.05;82.06;96465.72;5044721;28;20221;-70
2021/07/10 09:36:51;;;;;;;13.32;9.23;;;;;;;23.60;80.79;96460.00;5044806;28;20632;-69
2021/07/10 09:39:18;;;;;;;12.77;8.40;;;;;;;23.59;80.48;96463.72;5042459;28;20236;-69
2021/07/10 09:41:45;;;;;;;12.23;8.43;;;;;;;24.07;80.78;96456.47;5047412;28;20314;-69
2021/07/10 09:44:14;;;;;;;12.02;8.55;;;;;;;24.26;76.92;96459.59;5044990;28;20216;-69
2021/07/10 09:46:42;;;;;;;11.20;8.32;;;;;;;24.32;74.73;96447.81;5044266;28;20231;-69
2021/07/10 09:49:19;;;;;;;11.15;7.60;;;;;;;24.65;74.65;96454.56;5043596;28;20690;-69
2021/07/10 09:51:47;;;;;;;9.73;7.35;;;;;;;24.69;76.69;96447.59;5045446;28;20221;-70
2021/07/10 09:54:14;;;;;;;12.63;7.35;;;;;;;24.88;71.81;96439.88;5042877;28;20206;-70
2021/07/10 09:57:03;;;;;;;7.22;5.53;;;;;;;25.45;69.56;96436.16;5042523;28;20201;-69
2021/07/10 09:59:30;;;;;;;7.47;5.70;;;;;;;24.94;69.16;96442.34;5043020;28;20244;-70
2021/07/10 10:01:56;;;;;;;9.02;6.35;;;;;;;25.13;71.46;96437.34;5043955;28;20662;-69
2021/07/10 10:04:26;;;;;;;9.73;6.40;;;;;;;25.25;69.79;96433.38;5042041;28;20216;-71
2021/07/10 10:06:56;;;;;;;9.35;5.97;;;;;;;25.32;72.93;96431.25;5040733;28;20208;-72
2021/07/10 10:09:24;;;;;;;8.93;6.07;;;;;;;25.39;70.87;96429.09;5040453;28;20236;-71
2021/07/10 10:11:55;;;;;;;9.27;6.93;;;;;;;25.83;72.87;96428.47;5040191;28;20209;-68
2021/07/10 10:14:22;;;;;;;10.10;7.72;;;;;;;25.29;67.82;96427.19;5043228;28;20216;-71
2021/07/10 10:16:49;;;;;;;13.13;7.60;;;;;;;25.12;69.84;96425.75;5042107;28;20228;-70
2021/07/10 10:19:17;;;;;;;8.70;6.32;;;;;;;25.24;67.21;96420.94;5041197;28;20217;-70
2021/07/10 10:21:45;;;;;;;8.13;6.25;;;;;;;25.10;68.42;96410.91;5042503;28;20225;-70
2021/07/10 10:24:14;;;;;;;8.13;5.85;;;;;;;25.18;67.34;96413.94;5042461;28;20201;-70
2021/07/10 10:26:41;;;;;;;8.32;6.05;;;;;;;25.62;68.24;96407.06;5044702;28;20680;-70
2021/07/10 10:29:09;;;;;;;10.88;5.40;;;;;;;25.81;66.28;96408.22;5044095;28;20228;-70
2021/07/10 10:31:37;;;;;;;7.63;5.53;;;;;;;25.86;66.79;96404.47;5042626;28;20209;-69
2021/07/10 10:34:05;;;;;;;8.75;6.00;;;;;;;26.04;66.17;96401.22;5043989;28;20201;-70
2021/07/10 10:36:33;;;;;;;8.77;6.18;;;;;;;25.57;71.68;96396.25;5041647;28;20209;-70
2021/07/10 10:39:00;;;;;;;11.23;6.85;;;;;;;25.25;70.40;96392.91;5041258;28;20236;-71
2021/07/10 10:41:29;;;;;;;10.05;6.68;;;;;;;25.71;69.04;96383.88;5045185;28;20225;-69
2021/07/10 10:43:56;;;;;;;9.48;6.50;;;;;;;25.52;69.92;96385.44;5045544;28;20212;-69
2021/07/10 10:46:23;;;;;;;13.55;7.45;;;;;;;25.45;71.98;96384.88;5045333;28;20213;-69
2021/07/10 10:48:52;;;;;;;12.60;7.57;;;;;;;25.36;70.84;96376.47;5040313;28;20263;-68
2021/07/10 10:51:30;;;;;;;9.05;7.45;;;;;;;25.67;68.59;96372.78;5040721;28;20208;-76
2021/07/10 10:54:25;;;;;;;8.30;6.28;;;;;;;26.17;67.71;96362.88;5037034;28;20223;-76
2021/07/10 10:56:53;;;;;;;11.25;7.13;;;;;;;26.14;64.98;96368.78;5036149;28;20215;-77
2021/07/10 10:59:40;;;;;;;14.25;8.25;;;;;;;26.67;67.10;96368.25;5033155;28;20237;-77
2021/07/10 11:02:42;;;;;;;10.57;6.55;;;;;;;26.78;62.65;96367.13;5037145;28;20724;-77
2021/07/10 11:05:09;;;;;;;10.20;9.00;;;;;;;27.49;63.68;96362.00;5037501;28;20201;-77
2021/07/10 11:07:36;;;;;;;11.30;6.60;;;;;;;27.70;64.05;96368.97;5036238;28;20205;-76
2021/07/10 11:10:08;;;;;;;10.27;7.25;;;;;;;27.61;62.70;96359.81;5037244;28;20225;-76
2021/07/10 11:13:06;;;;;;;5.82;4.82;;;;;;;27.73;58.46;96360.25;5037367;28;20225;-77
2021/07/10 11:15:40;;;;;;;9.45;4.38;;;;;;;27.08;59.54;96354.34;4960132;28;20207;-76
2021/07/10 11:18:08;;;;;;;10.20;4.55;;;;;;;26.51;61.00;96353.13;5020521;28;20678;-76
2021/07/10 11:20:45;;;;;;;7.53;4.85;;;;;;;26.31;59.54;96352.31;5036817;28;20697;-77
2021/07/10 11:23:26;;;;;;;6.93;4.85;;;;;;;26.76;63.59;96344.97;5036904;28;20205;-77
2021/07/10 11:26:06;;;;;;;8.02;5.18;;;;;;;26.49;63.91;96333.69;5036722;28;20205;-76